sensor_id;sensor_type;location;lat;lon;timestamp;P1;durP1;ratioP1;P2;durP2;ratioP2
9860;SDS011;4969;52.304;4.968;2022-12-31T00:00:08;2.58;;;2.13;;
9860;SDS011;4969;52.304;4.968;2022-12-31T00:02:35;8.63;;;7.13;;
9860;SDS011;4969;52.304;4.968;2022-12-31T00:05:02;1.35;;;0.95;;
9860;SDS011;4969;52.304;4.968;2022-12-31T00:07:29;7.72;;;5.90;;
9860;SDS011;4969;52.304;4.968;2022-12-31T00:09:57;5.85;;;5.25;;
9860;SDS011;4969;52.304;4.968;2022-12-31T00:12:24;6.25;;;5.00;;
9860;SDS011;4969;52.304;4.968;2022-12-31T00:14:50;7.10;;;6.35;;
9860;SDS011;4969;52.304;4.968;2022-12-31T00:17:17;11.73;;;10.07;;
9860;SDS011;4969;52.304;4.968;2022-12-31T00:19:43;9.93;;;7.68;;
9860;SDS011;4969;52.304;4.968;2022-12-31T00:22:10;14.95;;;12.02;;
9860;SDS011;4969;52.304;4.968;2022-12-31T00:24:37;14.23;;;12.02;;
9860;SDS011;4969;52.304;4.968;2022-12-31T00:27:05;7.10;;;5.88;;
9860;SDS011;4969;52.304;4.968;2022-12-31T00:29:31;20.38;;;16.08;;
9860;SDS011;4969;52.304;4.968;2022-12-31T00:31:58;7.60;;;5.70;;
9860;SDS011;4969;52.304;4.968;2022-12-31T00:34:24;12.18;;;9.95;;
9860;SDS011;4969;52.304;4.968;2022-12-31T00:36:51;7.30;;;6.00;;
9860;SDS011;4969;52.304;4.968;2022-12-31T00:39:18;11.60;;;9.80;;
9860;SDS011;4969;52.304;4.968;2022-12-31T00:41:44;10.77;;;8.30;;
9860;SDS011;4969;52.304;4.968;2022-12-31T00:44:12;12.95;;;9.85;;
9860;SDS011;4969;52.304;4.968;2022-12-31T00:46:39;9.35;;;7.25;;
9860;SDS011;4969;52.304;4.968;2022-12-31T00:49:08;9.40;;;6.70;;
9860;SDS011;4969;52.304;4.968;2022-12-31T00:51:34;21.38;;;15.20;;
9860;SDS011;4969;52.304;4.968;2022-12-31T00:54:01;7.10;;;3.35;;
9860;SDS011;4969;52.304;4.968;2022-12-31T00:56:28;11.38;;;8.45;;
9860;SDS011;4969;52.304;4.968;2022-12-31T00:58:56;15.70;;;11.38;;
9860;SDS011;4969;52.304;4.968;2022-12-31T01:01:25;10.30;;;7.47;;
9860;SDS011;4969;52.304;4.968;2022-12-31T01:03:54;11.80;;;8.40;;
9860;SDS011;4969;52.304;4.968;2022-12-31T01:06:25;7.43;;;3.97;;
9860;SDS011;4969;52.304;4.968;2022-12-31T01:08:52;12.98;;;10.32;;
9860;SDS011;4969;52.304;4.968;2022-12-31T01:11:19;4.78;;;2.95;;
9860;SDS011;4969;52.304;4.968;2022-12-31T01:13:53;13.33;;;10.03;;
9860;SDS011;4969;52.304;4.968;2022-12-31T01:16:22;15.27;;;11.25;;
9860;SDS011;4969;52.304;4.968;2022-12-31T01:18:51;14.88;;;11.15;;
9860;SDS011;4969;52.304;4.968;2022-12-31T01:21:19;11.02;;;6.72;;
9860;SDS011;4969;52.304;4.968;2022-12-31T01:23:46;13.85;;;10.30;;
9860;SDS011;4969;52.304;4.968;2022-12-31T01:26:13;10.63;;;7.05;;
9860;SDS011;4969;52.304;4.968;2022-12-31T01:28:41;15.25;;;9.20;;
9860;SDS011;4969;52.304;4.968;2022-12-31T01:31:08;7.00;;;3.67;;
9860;SDS011;4969;52.304;4.968;2022-12-31T01:33:36;11.98;;;8.00;;
9860;SDS011;4969;52.304;4.968;2022-12-31T01:36:06;12.75;;;8.60;;
9860;SDS011;4969;52.304;4.968;2022-12-31T01:38:34;8.48;;;5.38;;
9860;SDS011;4969;52.304;4.968;2022-12-31T01:41:01;20.52;;;16.85;;
9860;SDS011;4969;52.304;4.968;2022-12-31T01:43:45;11.68;;;8.63;;
9860;SDS011;4969;52.304;4.968;2022-12-31T01:46:16;11.40;;;7.30;;
9860;SDS011;4969;52.304;4.968;2022-12-31T01:48:48;20.42;;;14.38;;
9860;SDS011;4969;52.304;4.968;2022-12-31T01:51:19;9.00;;;6.25;;
9860;SDS011;4969;52.304;4.968;2022-12-31T01:53:47;12.32;;;8.60;;
9860;SDS011;4969;52.304;4.968;2022-12-31T01:56:15;6.38;;;3.67;;
9860;SDS011;4969;52.304;4.968;2022-12-31T01:58:44;17.65;;;13.77;;
9860;SDS011;4969;52.304;4.968;2022-12-31T02:01:14;9.50;;;5.50;;
9860;SDS011;4969;52.304;4.968;2022-12-31T02:03:45;19.98;;;14.05;;
9860;SDS011;4969;52.304;4.968;2022-12-31T02:06:19;17.85;;;15.23;;
9860;SDS011;4969;52.304;4.968;2022-12-31T02:08:50;13.50;;;8.85;;
9860;SDS011;4969;52.304;4.968;2022-12-31T02:11:19;16.42;;;11.20;;
9860;SDS011;4969;52.304;4.968;2022-12-31T02:13:48;17.63;;;14.23;;
9860;SDS011;4969;52.304;4.968;2022-12-31T02:16:16;10.52;;;6.95;;
9860;SDS011;4969;52.304;4.968;2022-12-31T02:18:48;14.77;;;11.52;;
9860;SDS011;4969;52.304;4.968;2022-12-31T02:21:29;13.35;;;10.63;;
9860;SDS011;4969;52.304;4.968;2022-12-31T02:24:23;14.60;;;12.25;;
9860;SDS011;4969;52.304;4.968;2022-12-31T02:27:00;11.20;;;7.05;;
9860;SDS011;4969;52.304;4.968;2022-12-31T02:32:29;11.73;;;9.50;;
9860;SDS011;4969;52.304;4.968;2022-12-31T02:35:03;11.05;;;7.20;;
9860;SDS011;4969;52.304;4.968;2022-12-31T02:37:35;10.02;;;7.85;;
9860;SDS011;4969;52.304;4.968;2022-12-31T02:40:05;17.33;;;14.40;;
9860;SDS011;4969;52.304;4.968;2022-12-31T02:42:35;15.60;;;13.90;;
9860;SDS011;4969;52.304;4.968;2022-12-31T02:45:03;11.13;;;8.98;;
9860;SDS011;4969;52.304;4.968;2022-12-31T02:47:34;10.88;;;7.53;;
9860;SDS011;4969;52.304;4.968;2022-12-31T02:50:12;20.63;;;15.38;;
9860;SDS011;4969;52.304;4.968;2022-12-31T02:52:54;12.02;;;10.75;;
9860;SDS011;4969;52.304;4.968;2022-12-31T02:55:31;14.05;;;12.55;;
9860;SDS011;4969;52.304;4.968;2022-12-31T02:58:04;8.05;;;6.07;;
9860;SDS011;4969;52.304;4.968;2022-12-31T03:00:41;11.85;;;10.45;;
9860;SDS011;4969;52.304;4.968;2022-12-31T03:03:29;16.75;;;13.82;;
9860;SDS011;4969;52.304;4.968;2022-12-31T03:05:56;11.98;;;10.43;;
9860;SDS011;4969;52.304;4.968;2022-12-31T03:08:25;14.55;;;12.27;;
9860;SDS011;4969;52.304;4.968;2022-12-31T03:10:52;11.57;;;9.27;;
9860;SDS011;4969;52.304;4.968;2022-12-31T03:13:20;12.90;;;11.00;;
9860;SDS011;4969;52.304;4.968;2022-12-31T03:15:47;15.88;;;13.38;;
9860;SDS011;4969;52.304;4.968;2022-12-31T03:18:15;11.82;;;10.57;;
9860;SDS011;4969;52.304;4.968;2022-12-31T03:21:09;12.52;;;9.95;;
9860;SDS011;4969;52.304;4.968;2022-12-31T03:23:54;9.82;;;8.27;;
9860;SDS011;4969;52.304;4.968;2022-12-31T03:26:39;7.28;;;5.80;;
9860;SDS011;4969;52.304;4.968;2022-12-31T03:29:05;7.47;;;5.82;;
9860;SDS011;4969;52.304;4.968;2022-12-31T03:31:33;9.27;;;7.78;;
9860;SDS011;4969;52.304;4.968;2022-12-31T03:34:00;10.25;;;9.10;;
9860;SDS011;4969;52.304;4.968;2022-12-31T03:36:26;14.63;;;11.27;;
9860;SDS011;4969;52.304;4.968;2022-12-31T03:38:53;6.32;;;5.03;;
9860;SDS011;4969;52.304;4.968;2022-12-31T03:41:19;8.77;;;7.03;;
9860;SDS011;4969;52.304;4.968;2022-12-31T03:43:46;10.02;;;7.90;;
9860;SDS011;4969;52.304;4.968;2022-12-31T03:46:13;11.10;;;8.32;;
9860;SDS011;4969;52.304;4.968;2022-12-31T03:48:40;8.90;;;7.50;;
9860;SDS011;4969;52.304;4.968;2022-12-31T03:51:07;12.35;;;11.02;;
9860;SDS011;4969;52.304;4.968;2022-12-31T03:53:34;12.80;;;11.43;;
9860;SDS011;4969;52.304;4.968;2022-12-31T03:56:00;7.63;;;6.18;;
9860;SDS011;4969;52.304;4.968;2022-12-31T03:58:27;9.32;;;7.93;;
9860;SDS011;4969;52.304;4.968;2022-12-31T04:00:53;9.38;;;7.28;;
9860;SDS011;4969;52.304;4.968;2022-12-31T04:03:20;4.70;;;3.38;;
9860;SDS011;4969;52.304;4.968;2022-12-31T04:05:52;12.80;;;9.60;;
9860;SDS011;4969;52.304;4.968;2022-12-31T04:08:19;7.28;;;6.57;;
9860;SDS011;4969;52.304;4.968;2022-12-31T04:10:45;7.53;;;4.32;;
9860;SDS011;4969;52.304;4.968;2022-12-31T04:13:12;11.48;;;10.13;;
9860;SDS011;4969;52.304;4.968;2022-12-31T04:15:38;13.82;;;10.98;;
9860;SDS011;4969;52.304;4.968;2022-12-31T04:18:05;12.40;;;9.88;;
9860;SDS011;4969;52.304;4.968;2022-12-31T04:20:32;9.70;;;7.85;;
9860;SDS011;4969;52.304;4.968;2022-12-31T04:22:59;7.57;;;6.28;;
9860;SDS011;4969;52.304;4.968;2022-12-31T04:25:26;8.23;;;7.00;;
9860;SDS011;4969;52.304;4.968;2022-12-31T04:27:53;6.65;;;5.93;;
9860;SDS011;4969;52.304;4.968;2022-12-31T04:30:19;9.95;;;8.95;;
9860;SDS011;4969;52.304;4.968;2022-12-31T04:32:46;6.00;;;5.10;;
9860;SDS011;4969;52.304;4.968;2022-12-31T04:35:12;9.00;;;7.60;;
9860;SDS011;4969;52.304;4.968;2022-12-31T04:37:39;12.65;;;11.35;;
9860;SDS011;4969;52.304;4.968;2022-12-31T04:40:07;9.90;;;8.07;;
9860;SDS011;4969;52.304;4.968;2022-12-31T04:42:34;3.83;;;3.08;;
9860;SDS011;4969;52.304;4.968;2022-12-31T04:45:01;8.00;;;7.22;;
9860;SDS011;4969;52.304;4.968;2022-12-31T04:47:28;11.35;;;9.25;;
9860;SDS011;4969;52.304;4.968;2022-12-31T04:49:55;6.75;;;4.72;;
9860;SDS011;4969;52.304;4.968;2022-12-31T04:52:21;7.05;;;4.40;;
9860;SDS011;4969;52.304;4.968;2022-12-31T04:54:48;10.68;;;9.55;;
9860;SDS011;4969;52.304;4.968;2022-12-31T04:57:16;12.35;;;9.52;;
9860;SDS011;4969;52.304;4.968;2022-12-31T04:59:43;8.98;;;8.02;;
9860;SDS011;4969;52.304;4.968;2022-12-31T05:02:09;9.30;;;8.35;;
9860;SDS011;4969;52.304;4.968;2022-12-31T05:04:36;6.30;;;5.30;;
9860;SDS011;4969;52.304;4.968;2022-12-31T05:07:02;9.88;;;8.85;;
9860;SDS011;4969;52.304;4.968;2022-12-31T05:09:29;9.15;;;7.70;;
9860;SDS011;4969;52.304;4.968;2022-12-31T05:11:55;9.05;;;8.05;;
9860;SDS011;4969;52.304;4.968;2022-12-31T05:14:23;10.20;;;9.13;;
9860;SDS011;4969;52.304;4.968;2022-12-31T05:16:50;5.13;;;4.63;;
9860;SDS011;4969;52.304;4.968;2022-12-31T05:19:17;8.70;;;7.75;;
9860;SDS011;4969;52.304;4.968;2022-12-31T05:21:43;5.53;;;5.10;;
9860;SDS011;4969;52.304;4.968;2022-12-31T05:24:30;5.85;;;5.32;;
9860;SDS011;4969;52.304;4.968;2022-12-31T05:26:57;8.60;;;7.75;;
9860;SDS011;4969;52.304;4.968;2022-12-31T05:29:24;6.95;;;6.15;;
9860;SDS011;4969;52.304;4.968;2022-12-31T05:31:51;3.83;;;3.47;;
9860;SDS011;4969;52.304;4.968;2022-12-31T05:34:18;9.02;;;8.13;;
9860;SDS011;4969;52.304;4.968;2022-12-31T05:36:45;8.48;;;7.68;;
9860;SDS011;4969;52.304;4.968;2022-12-31T05:39:11;7.78;;;6.93;;
9860;SDS011;4969;52.304;4.968;2022-12-31T05:41:38;7.85;;;7.07;;
9860;SDS011;4969;52.304;4.968;2022-12-31T05:44:04;6.53;;;5.90;;
9860;SDS011;4969;52.304;4.968;2022-12-31T05:46:32;4.65;;;4.25;;
9860;SDS011;4969;52.304;4.968;2022-12-31T05:48:59;4.72;;;4.32;;
9860;SDS011;4969;52.304;4.968;2022-12-31T05:51:25;4.60;;;4.20;;
9860;SDS011;4969;52.304;4.968;2022-12-31T05:53:52;3.05;;;2.75;;
9860;SDS011;4969;52.304;4.968;2022-12-31T05:56:19;4.68;;;3.75;;
9860;SDS011;4969;52.304;4.968;2022-12-31T05:58:45;3.35;;;3.00;;
9860;SDS011;4969;52.304;4.968;2022-12-31T06:01:12;4.70;;;4.25;;
9860;SDS011;4969;52.304;4.968;2022-12-31T06:03:40;1.77;;;1.67;;
9860;SDS011;4969;52.304;4.968;2022-12-31T06:06:07;4.57;;;4.18;;
9860;SDS011;4969;52.304;4.968;2022-12-31T06:08:34;4.35;;;4.05;;
9860;SDS011;4969;52.304;4.968;2022-12-31T06:11:00;1.90;;;1.80;;
9860;SDS011;4969;52.304;4.968;2022-12-31T06:13:27;4.07;;;3.67;;
9860;SDS011;4969;52.304;4.968;2022-12-31T06:15:53;3.58;;;3.33;;
9860;SDS011;4969;52.304;4.968;2022-12-31T06:18:20;3.92;;;3.63;;
9860;SDS011;4969;52.304;4.968;2022-12-31T06:20:48;4.00;;;3.70;;
9860;SDS011;4969;52.304;4.968;2022-12-31T06:23:14;2.50;;;2.40;;
9860;SDS011;4969;52.304;4.968;2022-12-31T06:25:41;2.85;;;2.75;;
9860;SDS011;4969;52.304;4.968;2022-12-31T06:28:08;3.78;;;3.58;;
9860;SDS011;4969;52.304;4.968;2022-12-31T06:30:35;4.22;;;3.92;;
9860;SDS011;4969;52.304;4.968;2022-12-31T06:33:02;3.85;;;3.50;;
9860;SDS011;4969;52.304;4.968;2022-12-31T06:35:28;3.85;;;3.58;;
9860;SDS011;4969;52.304;4.968;2022-12-31T06:37:56;2.90;;;2.70;;
9860;SDS011;4969;52.304;4.968;2022-12-31T06:40:23;3.38;;;3.17;;
9860;SDS011;4969;52.304;4.968;2022-12-31T06:42:50;3.80;;;3.50;;
9860;SDS011;4969;52.304;4.968;2022-12-31T06:45:17;3.50;;;3.22;;
9860;SDS011;4969;52.304;4.968;2022-12-31T06:47:44;2.72;;;2.60;;
9860;SDS011;4969;52.304;4.968;2022-12-31T06:50:10;2.58;;;2.47;;
9860;SDS011;4969;52.304;4.968;2022-12-31T06:52:37;3.28;;;3.00;;
9860;SDS011;4969;52.304;4.968;2022-12-31T06:55:06;3.17;;;2.97;;
9860;SDS011;4969;52.304;4.968;2022-12-31T06:57:33;3.13;;;2.92;;
9860;SDS011;4969;52.304;4.968;2022-12-31T07:00:00;2.70;;;2.60;;
9860;SDS011;4969;52.304;4.968;2022-12-31T07:05:25;2.80;;;2.60;;
9860;SDS011;4969;52.304;4.968;2022-12-31T07:07:57;2.80;;;2.60;;
9860;SDS011;4969;52.304;4.968;2022-12-31T07:10:35;2.00;;;1.90;;
9860;SDS011;4969;52.304;4.968;2022-12-31T07:13:19;2.35;;;2.25;;
9860;SDS011;4969;52.304;4.968;2022-12-31T07:16:06;2.38;;;2.17;;
9860;SDS011;4969;52.304;4.968;2022-12-31T07:18:41;1.75;;;1.65;;
9860;SDS011;4969;52.304;4.968;2022-12-31T07:21:12;1.95;;;1.85;;
9860;SDS011;4969;52.304;4.968;2022-12-31T07:23:41;2.00;;;1.90;;
9860;SDS011;4969;52.304;4.968;2022-12-31T07:26:12;2.35;;;1.65;;
9860;SDS011;4969;52.304;4.968;2022-12-31T07:28:49;1.65;;;1.48;;
9860;SDS011;4969;52.304;4.968;2022-12-31T07:31:25;1.83;;;1.73;;
9860;SDS011;4969;52.304;4.968;2022-12-31T07:33:59;1.17;;;1.00;;
9860;SDS011;4969;52.304;4.968;2022-12-31T07:36:41;2.55;;;1.45;;
9860;SDS011;4969;52.304;4.968;2022-12-31T07:39:20;1.15;;;0.68;;
9860;SDS011;4969;52.304;4.968;2022-12-31T07:41:53;1.50;;;0.85;;
9860;SDS011;4969;52.304;4.968;2022-12-31T07:44:33;0.98;;;0.95;;
9860;SDS011;4969;52.304;4.968;2022-12-31T07:47:11;2.67;;;0.70;;
9860;SDS011;4969;52.304;4.968;2022-12-31T07:49:44;1.83;;;0.63;;
9860;SDS011;4969;52.304;4.968;2022-12-31T07:52:11;0.90;;;0.70;;
9860;SDS011;4969;52.304;4.968;2022-12-31T07:54:38;1.75;;;0.57;;
9860;SDS011;4969;52.304;4.968;2022-12-31T07:57:07;1.77;;;0.93;;
9860;SDS011;4969;52.304;4.968;2022-12-31T07:59:38;1.00;;;0.75;;
9860;SDS011;4969;52.304;4.968;2022-12-31T08:02:15;1.48;;;1.02;;
9860;SDS011;4969;52.304;4.968;2022-12-31T08:04:47;0.88;;;0.82;;
9860;SDS011;4969;52.304;4.968;2022-12-31T08:07:25;1.90;;;1.00;;
9860;SDS011;4969;52.304;4.968;2022-12-31T08:09:59;0.82;;;0.50;;
9860;SDS011;4969;52.304;4.968;2022-12-31T08:12:33;1.08;;;0.93;;
9860;SDS011;4969;52.304;4.968;2022-12-31T08:15:01;2.38;;;0.82;;
9860;SDS011;4969;52.304;4.968;2022-12-31T08:17:35;1.05;;;0.88;;
9860;SDS011;4969;52.304;4.968;2022-12-31T08:20:02;1.25;;;0.82;;
9860;SDS011;4969;52.304;4.968;2022-12-31T08:22:38;1.48;;;0.90;;
9860;SDS011;4969;52.304;4.968;2022-12-31T08:25:15;0.98;;;0.82;;
9860;SDS011;4969;52.304;4.968;2022-12-31T08:27:48;0.75;;;0.75;;
9860;SDS011;4969;52.304;4.968;2022-12-31T08:30:22;2.08;;;1.00;;
9860;SDS011;4969;52.304;4.968;2022-12-31T08:32:56;2.40;;;1.03;;
9860;SDS011;4969;52.304;4.968;2022-12-31T08:35:32;2.10;;;1.17;;
9860;SDS011;4969;52.304;4.968;2022-12-31T08:38:15;2.25;;;1.10;;
9860;SDS011;4969;52.304;4.968;2022-12-31T08:40:46;1.95;;;0.98;;
9860;SDS011;4969;52.304;4.968;2022-12-31T08:43:26;1.48;;;0.93;;
9860;SDS011;4969;52.304;4.968;2022-12-31T08:46:02;2.33;;;1.25;;
9860;SDS011;4969;52.304;4.968;2022-12-31T08:48:34;2.97;;;1.35;;
9860;SDS011;4969;52.304;4.968;2022-12-31T08:51:04;3.90;;;1.40;;
9860;SDS011;4969;52.304;4.968;2022-12-31T08:53:32;4.45;;;1.52;;
9860;SDS011;4969;52.304;4.968;2022-12-31T08:55:59;4.90;;;1.45;;
9860;SDS011;4969;52.304;4.968;2022-12-31T08:58:35;2.97;;;1.45;;
9860;SDS011;4969;52.304;4.968;2022-12-31T09:01:08;3.95;;;1.45;;
9860;SDS011;4969;52.304;4.968;2022-12-31T09:03:40;4.72;;;1.70;;
9860;SDS011;4969;52.304;4.968;2022-12-31T09:06:19;3.63;;;1.63;;
9860;SDS011;4969;52.304;4.968;2022-12-31T09:08:54;3.90;;;1.45;;
9860;SDS011;4969;52.304;4.968;2022-12-31T09:11:27;2.80;;;1.20;;
9860;SDS011;4969;52.304;4.968;2022-12-31T09:14:02;3.20;;;1.70;;
9860;SDS011;4969;52.304;4.968;2022-12-31T09:16:43;3.33;;;1.40;;
9860;SDS011;4969;52.304;4.968;2022-12-31T09:19:15;3.45;;;1.38;;
9860;SDS011;4969;52.304;4.968;2022-12-31T09:21:42;4.28;;;1.50;;
9860;SDS011;4969;52.304;4.968;2022-12-31T09:24:10;2.30;;;1.50;;
9860;SDS011;4969;52.304;4.968;2022-12-31T09:26:41;4.03;;;1.48;;
9860;SDS011;4969;52.304;4.968;2022-12-31T09:29:19;4.43;;;1.55;;
9860;SDS011;4969;52.304;4.968;2022-12-31T09:32:02;4.22;;;1.65;;
9860;SDS011;4969;52.304;4.968;2022-12-31T09:34:34;5.75;;;1.60;;
9860;SDS011;4969;52.304;4.968;2022-12-31T09:37:08;4.35;;;1.67;;
9860;SDS011;4969;52.304;4.968;2022-12-31T09:39:41;5.05;;;1.80;;
9860;SDS011;4969;52.304;4.968;2022-12-31T09:42:18;6.35;;;1.88;;
9860;SDS011;4969;52.304;4.968;2022-12-31T09:45:35;3.95;;;1.95;;
9860;SDS011;4969;52.304;4.968;2022-12-31T09:51:28;3.30;;;1.50;;
9860;SDS011;4969;52.304;4.968;2022-12-31T09:54:02;5.20;;;1.60;;
9860;SDS011;4969;52.304;4.968;2022-12-31T09:56:49;3.80;;;1.60;;
9860;SDS011;4969;52.304;4.968;2022-12-31T09:59:32;3.90;;;1.65;;
9860;SDS011;4969;52.304;4.968;2022-12-31T10:02:12;5.80;;;1.60;;
9860;SDS011;4969;52.304;4.968;2022-12-31T10:04:51;12.38;;;7.80;;
9860;SDS011;4969;52.304;4.968;2022-12-31T10:07:28;6.15;;;3.63;;
9860;SDS011;4969;52.304;4.968;2022-12-31T10:10:08;6.85;;;3.53;;
9860;SDS011;4969;52.304;4.968;2022-12-31T10:12:45;7.88;;;4.93;;
9860;SDS011;4969;52.304;4.968;2022-12-31T10:22:13;8.82;;;6.68;;
9860;SDS011;4969;52.304;4.968;2022-12-31T10:25:07;10.43;;;8.23;;
9860;SDS011;4969;52.304;4.968;2022-12-31T10:27:53;11.32;;;8.75;;
9860;SDS011;4969;52.304;4.968;2022-12-31T10:30:26;12.60;;;8.15;;
9860;SDS011;4969;52.304;4.968;2022-12-31T10:33:05;14.75;;;11.02;;
9860;SDS011;4969;52.304;4.968;2022-12-31T10:35:35;10.90;;;8.50;;
9860;SDS011;4969;52.304;4.968;2022-12-31T10:38:16;9.80;;;6.28;;
9860;SDS011;4969;52.304;4.968;2022-12-31T10:40:59;8.10;;;6.32;;
9860;SDS011;4969;52.304;4.968;2022-12-31T10:47:02;5.90;;;4.82;;
9860;SDS011;4969;52.304;4.968;2022-12-31T10:49:59;13.48;;;11.05;;
9860;SDS011;4969;52.304;4.968;2022-12-31T10:52:51;3.22;;;2.88;;
9860;SDS011;4969;52.304;4.968;2022-12-31T10:55:54;6.38;;;5.18;;
9860;SDS011;4969;52.304;4.968;2022-12-31T10:58:35;13.10;;;9.05;;
9860;SDS011;4969;52.304;4.968;2022-12-31T11:01:27;3.92;;;3.05;;
9860;SDS011;4969;52.304;4.968;2022-12-31T11:16:17;7.13;;;5.22;;
9860;SDS011;4969;52.304;4.968;2022-12-31T11:18:56;6.10;;;5.47;;
9860;SDS011;4969;52.304;4.968;2022-12-31T11:21:31;2.85;;;1.67;;
9860;SDS011;4969;52.304;4.968;2022-12-31T11:24:13;8.52;;;7.60;;
9860;SDS011;4969;52.304;4.968;2022-12-31T11:26:55;3.45;;;2.58;;
9860;SDS011;4969;52.304;4.968;2022-12-31T11:29:35;6.32;;;4.82;;
9860;SDS011;4969;52.304;4.968;2022-12-31T11:32:15;6.85;;;6.18;;
9860;SDS011;4969;52.304;4.968;2022-12-31T11:35:02;7.97;;;6.10;;
9860;SDS011;4969;52.304;4.968;2022-12-31T11:37:43;4.93;;;4.07;;
9860;SDS011;4969;52.304;4.968;2022-12-31T11:40:20;7.68;;;4.63;;
9860;SDS011;4969;52.304;4.968;2022-12-31T11:42:57;6.22;;;4.80;;
9860;SDS011;4969;52.304;4.968;2022-12-31T11:45:39;1.35;;;1.25;;
9860;SDS011;4969;52.304;4.968;2022-12-31T11:48:16;7.03;;;5.00;;
9860;SDS011;4969;52.304;4.968;2022-12-31T11:50:49;3.35;;;2.00;;
9860;SDS011;4969;52.304;4.968;2022-12-31T11:53:33;7.03;;;5.60;;
9860;SDS011;4969;52.304;4.968;2022-12-31T11:56:13;3.53;;;3.10;;
9860;SDS011;4969;52.304;4.968;2022-12-31T11:58:44;6.78;;;6.07;;
9860;SDS011;4969;52.304;4.968;2022-12-31T12:01:16;7.65;;;5.03;;
9860;SDS011;4969;52.304;4.968;2022-12-31T12:03:45;6.43;;;5.22;;
9860;SDS011;4969;52.304;4.968;2022-12-31T12:06:13;8.30;;;6.60;;
9860;SDS011;4969;52.304;4.968;2022-12-31T12:08:42;5.35;;;3.25;;
9860;SDS011;4969;52.304;4.968;2022-12-31T12:11:12;6.53;;;5.15;;
9860;SDS011;4969;52.304;4.968;2022-12-31T12:13:44;4.38;;;3.38;;
9860;SDS011;4969;52.304;4.968;2022-12-31T12:16:11;4.68;;;3.70;;
9860;SDS011;4969;52.304;4.968;2022-12-31T12:18:41;2.00;;;1.25;;
9860;SDS011;4969;52.304;4.968;2022-12-31T12:21:11;7.50;;;6.07;;
9860;SDS011;4969;52.304;4.968;2022-12-31T12:23:52;2.30;;;2.08;;
9860;SDS011;4969;52.304;4.968;2022-12-31T12:29:07;7.07;;;6.38;;
9860;SDS011;4969;52.304;4.968;2022-12-31T12:31:37;2.42;;;1.98;;
9860;SDS011;4969;52.304;4.968;2022-12-31T12:34:04;6.63;;;5.95;;
9860;SDS011;4969;52.304;4.968;2022-12-31T12:36:46;5.95;;;5.30;;
9860;SDS011;4969;52.304;4.968;2022-12-31T12:39:14;2.15;;;1.95;;
9860;SDS011;4969;52.304;4.968;2022-12-31T12:41:45;5.72;;;5.15;;
9860;SDS011;4969;52.304;4.968;2022-12-31T12:44:13;5.63;;;2.22;;
9860;SDS011;4969;52.304;4.968;2022-12-31T12:46:44;6.05;;;5.45;;
9860;SDS011;4969;52.304;4.968;2022-12-31T12:49:13;3.33;;;3.03;;
9860;SDS011;4969;52.304;4.968;2022-12-31T12:51:50;3.80;;;3.50;;
9860;SDS011;4969;52.304;4.968;2022-12-31T12:54:32;2.38;;;2.22;;
9860;SDS011;4969;52.304;4.968;2022-12-31T12:57:07;8.95;;;7.20;;
9860;SDS011;4969;52.304;4.968;2022-12-31T12:59:49;4.05;;;3.65;;
9860;SDS011;4969;52.304;4.968;2022-12-31T13:02:32;3.10;;;2.85;;
9860;SDS011;4969;52.304;4.968;2022-12-31T13:05:20;4.45;;;4.05;;
9860;SDS011;4969;52.304;4.968;2022-12-31T13:07:58;5.00;;;4.15;;
9860;SDS011;4969;52.304;4.968;2022-12-31T13:10:41;6.30;;;5.03;;
9860;SDS011;4969;52.304;4.968;2022-12-31T13:13:22;5.95;;;4.45;;
9860;SDS011;4969;52.304;4.968;2022-12-31T13:15:55;5.18;;;4.28;;
9860;SDS011;4969;52.304;4.968;2022-12-31T13:18:35;7.60;;;5.03;;
9860;SDS011;4969;52.304;4.968;2022-12-31T13:21:16;12.32;;;6.90;;
9860;SDS011;4969;52.304;4.968;2022-12-31T13:23:50;8.75;;;6.57;;
9860;SDS011;4969;52.304;4.968;2022-12-31T13:26:22;10.48;;;7.05;;
9860;SDS011;4969;52.304;4.968;2022-12-31T13:28:53;10.95;;;7.47;;
9860;SDS011;4969;52.304;4.968;2022-12-31T13:31:22;9.73;;;5.90;;
9860;SDS011;4969;52.304;4.968;2022-12-31T13:33:57;10.43;;;8.32;;
9860;SDS011;4969;52.304;4.968;2022-12-31T13:36:26;8.32;;;5.05;;
9860;SDS011;4969;52.304;4.968;2022-12-31T13:38:57;6.70;;;4.78;;
9860;SDS011;4969;52.304;4.968;2022-12-31T13:41:28;9.75;;;7.53;;
9860;SDS011;4969;52.304;4.968;2022-12-31T13:43:59;10.60;;;8.02;;
9860;SDS011;4969;52.304;4.968;2022-12-31T13:46:36;4.65;;;3.90;;
9860;SDS011;4969;52.304;4.968;2022-12-31T13:49:12;3.70;;;2.53;;
9860;SDS011;4969;52.304;4.968;2022-12-31T13:51:44;7.00;;;5.45;;
9860;SDS011;4969;52.304;4.968;2022-12-31T13:54:18;9.82;;;6.07;;
9860;SDS011;4969;52.304;4.968;2022-12-31T13:56:52;4.03;;;2.72;;
9860;SDS011;4969;52.304;4.968;2022-12-31T13:59:21;4.15;;;3.75;;
9860;SDS011;4969;52.304;4.968;2022-12-31T14:01:53;10.10;;;5.20;;
9860;SDS011;4969;52.304;4.968;2022-12-31T14:04:29;10.25;;;6.75;;
9860;SDS011;4969;52.304;4.968;2022-12-31T14:06:59;8.52;;;7.50;;
9860;SDS011;4969;52.304;4.968;2022-12-31T14:09:32;6.63;;;4.53;;
9860;SDS011;4969;52.304;4.968;2022-12-31T14:12:07;9.07;;;6.97;;
9860;SDS011;4969;52.304;4.968;2022-12-31T14:14:45;4.38;;;3.33;;
9860;SDS011;4969;52.304;4.968;2022-12-31T14:17:18;4.97;;;3.10;;
9860;SDS011;4969;52.304;4.968;2022-12-31T14:19:58;6.53;;;4.75;;
9860;SDS011;4969;52.304;4.968;2022-12-31T14:22:33;5.13;;;3.90;;
9860;SDS011;4969;52.304;4.968;2022-12-31T14:25:04;6.25;;;4.45;;
9860;SDS011;4969;52.304;4.968;2022-12-31T14:27:41;5.78;;;4.18;;
9860;SDS011;4969;52.304;4.968;2022-12-31T14:30:13;4.25;;;2.70;;
9860;SDS011;4969;52.304;4.968;2022-12-31T14:32:56;9.60;;;7.05;;
9860;SDS011;4969;52.304;4.968;2022-12-31T14:35:41;5.40;;;2.42;;
9860;SDS011;4969;52.304;4.968;2022-12-31T14:38:24;6.85;;;4.30;;
9860;SDS011;4969;52.304;4.968;2022-12-31T14:41:01;7.10;;;4.00;;
9860;SDS011;4969;52.304;4.968;2022-12-31T14:43:37;6.03;;;4.32;;
9860;SDS011;4969;52.304;4.968;2022-12-31T14:46:11;8.48;;;5.15;;
9860;SDS011;4969;52.304;4.968;2022-12-31T14:48:47;4.88;;;3.53;;
9860;SDS011;4969;52.304;4.968;2022-12-31T14:51:22;6.25;;;4.47;;
9860;SDS011;4969;52.304;4.968;2022-12-31T14:53:53;7.18;;;4.55;;
9860;SDS011;4969;52.304;4.968;2022-12-31T14:56:31;7.70;;;4.68;;
9860;SDS011;4969;52.304;4.968;2022-12-31T14:59:18;6.40;;;3.70;;
9860;SDS011;4969;52.304;4.968;2022-12-31T15:01:50;6.88;;;3.03;;
9860;SDS011;4969;52.304;4.968;2022-12-31T15:04:27;7.20;;;4.93;;
9860;SDS011;4969;52.304;4.968;2022-12-31T15:06:58;8.52;;;5.15;;
9860;SDS011;4969;52.304;4.968;2022-12-31T15:12:38;7.07;;;5.03;;
9860;SDS011;4969;52.304;4.968;2022-12-31T15:18:20;7.93;;;4.35;;
9860;SDS011;4969;52.304;4.968;2022-12-31T15:23:47;9.32;;;5.25;;
9860;SDS011;4969;52.304;4.968;2022-12-31T15:26:18;9.52;;;7.18;;
9860;SDS011;4969;52.304;4.968;2022-12-31T15:28:54;10.48;;;6.68;;
9860;SDS011;4969;52.304;4.968;2022-12-31T15:31:23;8.02;;;4.90;;
9860;SDS011;4969;52.304;4.968;2022-12-31T15:33:55;9.10;;;6.70;;
9860;SDS011;4969;52.304;4.968;2022-12-31T15:36:23;8.93;;;5.13;;
9860;SDS011;4969;52.304;4.968;2022-12-31T15:38:53;11.95;;;6.95;;
9860;SDS011;4969;52.304;4.968;2022-12-31T15:41:35;8.70;;;4.80;;
9860;SDS011;4969;52.304;4.968;2022-12-31T15:44:05;10.43;;;8.18;;
9860;SDS011;4969;52.304;4.968;2022-12-31T15:46:38;11.00;;;5.22;;
9860;SDS011;4969;52.304;4.968;2022-12-31T15:49:08;8.70;;;5.97;;
9860;SDS011;4969;52.304;4.968;2022-12-31T15:51:40;8.68;;;4.45;;
9860;SDS011;4969;52.304;4.968;2022-12-31T15:54:17;10.02;;;4.05;;
9860;SDS011;4969;52.304;4.968;2022-12-31T15:56:47;9.48;;;4.78;;
9860;SDS011;4969;52.304;4.968;2022-12-31T15:59:15;10.43;;;6.25;;
9860;SDS011;4969;52.304;4.968;2022-12-31T16:01:43;12.20;;;5.40;;
9860;SDS011;4969;52.304;4.968;2022-12-31T16:04:13;11.02;;;5.32;;
9860;SDS011;4969;52.304;4.968;2022-12-31T16:06:43;8.35;;;6.20;;
9860;SDS011;4969;52.304;4.968;2022-12-31T16:09:17;8.90;;;5.40;;
9860;SDS011;4969;52.304;4.968;2022-12-31T16:11:47;10.13;;;6.25;;
9860;SDS011;4969;52.304;4.968;2022-12-31T16:14:15;12.88;;;4.45;;
9860;SDS011;4969;52.304;4.968;2022-12-31T16:16:52;12.40;;;6.18;;
9860;SDS011;4969;52.304;4.968;2022-12-31T16:19:30;8.77;;;4.70;;
9860;SDS011;4969;52.304;4.968;2022-12-31T16:22:00;10.82;;;5.20;;
9860;SDS011;4969;52.304;4.968;2022-12-31T16:24:33;11.93;;;6.70;;